Picayune, MS

02:52 CDT le 30 août 2015 (GMT -0500)
Hide_A_Way Lake ~OWX | | Change Station
CLOSE
Current Station
Stations météorologiques personnelles
Location: Carriere, MS
Altitude: 100 ft
Stations météo à proximité

Alt. 100 ft 30.58 °N, 89.65 °W | Updated 7 seconds ago

Partiellement nuageux
Partiellement nuageux
69.6 ° F
Paraît 69.6 ° F
N
0.0
Vent Variable Vent de SO
Gusts 0.0 mph

Aujourd'hui
Haut(e) -- | Bas -- ° F
--% Risque de précip.
Hier
Haut(e) -- | Bas -- ° F
Precip. -- pouce
6:33 AM 7:24 PM
Pleine lune, 100% visible
Pression 30.01 pouce
Visibilité 10.0 Miles terrestres
Nuages Ciel dégagé
Point de rosée 67 ° F
Humidité 90%
Précipitations 0.00 pouce
Profondeur de la couche neigeuse Non disponible.
UV 0.0 sur 12
Pollen 6.80 sur 12
Qualité de l'air Non disponible.
Flu Activity Non disponible.
METAR KASD 300653Z AUTO 00000KT 10SM CLR 22/21 A3001 RMK AO2 SLP160 T02170206
Pression 30.01 pouce
Visibilité 10.0 Miles terrestres
Nuages Ciel dégagé
Point de rosée 67 ° F
Humidité 90%
Précipitations 0.00 pouce
Profondeur de la couche neigeuse Non disponible.
UV 0.0 sur 12
Pollen 6.80 sur 12
Qualité de l'air Non disponible.
Flu Activity Non disponible.
METAR KASD 300653Z AUTO 00000KT 10SM CLR 22/21 A3001 RMK AO2 SLP160 T02170206

10-Day Weather Forecast

×

Almanac

Astronomie

Aug. 30, 2015 Lever Coucher
Temps réel
Crépuscule civil
Crépuscule nautique
Crépuscule astronomique
Lune
Durée de lumière visible
Longueur du jour
Tomorrow will be .
, % of the Moon is Illuminated

Extrêmes aujourd'hui

State Highs State Lows

Community

WunderPhotos

Upload Photos

1,850,904 Photos téléchargées !

WunderBlogs® & News

Nearby

Qualité de l'air

  Qualité de l'air Indice de la qualité de l'air Polluant
Not available.

Épaisseur de neige

Station Depth Altitude

Activité sismique

Ville Distance Mag. Time & Date
Minimum magnitude displayed is 2.5.

Températures des eaux côtières

Lieu Température

Stations

Stations météo à proximité

Emplacement de la station Température Refroidissement éolien Point de rosée Humidité Vent Precip. Alt. Mise à jour Type